createdAt,value
2022-12-20T00:02:19.907Z,83.90
2022-12-20T00:04:52.466Z,83.85
2022-12-20T00:07:24.990Z,83.93
2022-12-20T00:09:57.158Z,83.68
2022-12-20T00:12:34.384Z,83.95
2022-12-20T00:15:07.633Z,84.84
2022-12-20T00:17:39.880Z,84.54
2022-12-20T00:20:13.832Z,84.39
2022-12-20T00:22:46.523Z,84.00
2022-12-20T00:25:25.416Z,83.56
2022-12-20T00:27:57.873Z,82.93
2022-12-20T00:30:29.876Z,82.68
2022-12-20T00:33:02.396Z,82.68
2022-12-20T00:35:34.787Z,82.37
2022-12-20T00:38:06.890Z,82.33
2022-12-20T00:40:40.861Z,82.28
2022-12-20T00:43:14.863Z,82.25
2022-12-20T00:45:46.929Z,82.33
2022-12-20T00:48:19.145Z,82.27
2022-12-20T00:50:51.689Z,82.70
2022-12-20T00:53:26.480Z,82.72
2022-12-20T00:55:57.282Z,82.68
2022-12-20T00:58:30.046Z,82.52
2022-12-20T01:01:02.820Z,82.65
2022-12-20T01:03:35.611Z,82.77
2022-12-20T01:06:08.780Z,83.23
2022-12-20T01:08:41.172Z,82.99
2022-12-20T01:11:16.322Z,83.01
2022-12-20T01:13:51.276Z,82.90
2022-12-20T01:16:30.746Z,82.97
2022-12-20T01:19:06.803Z,82.96
2022-12-20T01:21:44.515Z,82.51
2022-12-20T01:24:18.949Z,82.97
2022-12-20T01:26:52.034Z,83.33
2022-12-20T01:29:24.218Z,83.13
2022-12-20T01:31:56.366Z,82.80
2022-12-20T01:34:28.435Z,82.55
2022-12-20T01:37:01.066Z,82.44
2022-12-20T01:39:33.321Z,81.95
2022-12-20T01:42:07.291Z,81.99
2022-12-20T01:44:58.377Z,82.48
2022-12-20T01:47:35.231Z,82.30
2022-12-20T01:50:09.457Z,81.81
2022-12-20T01:52:45.977Z,82.35
2022-12-20T01:55:23.811Z,82.13
2022-12-20T01:58:00.779Z,82.18
2022-12-20T02:00:33.034Z,82.38
2022-12-20T02:03:13.727Z,82.57
2022-12-20T02:05:47.156Z,82.17
2022-12-20T02:08:22.158Z,82.58
2022-12-20T02:11:07.568Z,82.33
2022-12-20T02:13:50.289Z,82.13
2022-12-20T02:16:27.775Z,81.98
2022-12-20T02:19:10.096Z,82.00
2022-12-20T02:21:45.141Z,81.32
2022-12-20T02:24:47.523Z,81.48
2022-12-20T02:27:41.200Z,81.35
2022-12-20T02:30:19.845Z,81.51
2022-12-20T02:32:58.100Z,81.10
2022-12-20T02:35:33.237Z,81.13
2022-12-20T02:38:05.525Z,81.12
2022-12-20T02:40:41.928Z,80.85
2022-12-20T02:43:28.377Z,81.25
2022-12-20T02:46:03.744Z,81.60
2022-12-20T02:48:41.128Z,81.24
2022-12-20T02:51:12.525Z,81.21
2022-12-20T02:53:45.680Z,80.75
2022-12-20T02:56:33.909Z,80.55
2022-12-20T02:59:14.946Z,80.50
2022-12-20T03:01:50.442Z,80.47
2022-12-20T03:04:25.978Z,80.56
2022-12-20T03:07:04.533Z,80.16
2022-12-20T03:09:42.231Z,80.22
2022-12-20T03:12:16.078Z,80.19
2022-12-20T03:14:49.004Z,80.13
2022-12-20T03:17:21.794Z,80.01
2022-12-20T03:19:53.983Z,79.78
2022-12-20T03:22:26.154Z,79.63
2022-12-20T03:24:58.349Z,79.34
2022-12-20T03:27:31.069Z,79.50
2022-12-20T03:30:08.914Z,79.82
2022-12-20T03:32:42.666Z,79.52
2022-12-20T03:35:16.381Z,79.32
2022-12-20T03:37:50.105Z,79.25
2022-12-20T03:40:22.933Z,79.37
2022-12-20T03:42:55.015Z,79.37
2022-12-20T03:45:27.463Z,79.42
2022-12-20T03:47:59.847Z,79.54
2022-12-20T03:50:34.628Z,79.57
2022-12-20T03:53:07.586Z,78.76
2022-12-20T03:55:44.234Z,79.13
2022-12-20T03:58:17.555Z,79.09
2022-12-20T04:00:51.184Z,79.19
2022-12-20T04:03:43.868Z,79.61
2022-12-20T04:06:16.295Z,79.60
2022-12-20T04:08:48.804Z,79.40
2022-12-20T04:11:26.309Z,79.33
2022-12-20T04:14:08.123Z,79.35
2022-12-20T04:16:40.796Z,79.23
2022-12-20T04:19:14.438Z,78.94
2022-12-20T04:21:49.412Z,79.27
2022-12-20T04:24:28.276Z,79.18
2022-12-20T04:27:14.516Z,78.68
2022-12-20T04:29:46.672Z,78.92
2022-12-20T04:32:20.976Z,78.74
2022-12-20T04:34:54.043Z,78.50
2022-12-20T04:37:26.185Z,78.89
2022-12-20T04:39:59.770Z,78.91
2022-12-20T04:42:43.679Z,78.63
2022-12-20T04:45:19.786Z,78.07
2022-12-20T04:48:28.543Z,78.11
2022-12-20T04:50:56.145Z,78.23
2022-12-20T04:53:46.117Z,78.81
2022-12-20T04:56:21.462Z,79.00
2022-12-20T04:58:57.380Z,78.98
2022-12-20T05:01:37.802Z,78.45
2022-12-20T05:04:11.473Z,78.41
2022-12-20T05:06:44.080Z,78.24
2022-12-20T05:09:16.402Z,78.31
2022-12-20T05:11:51.018Z,78.04
2022-12-20T05:14:23.815Z,77.92
2022-12-20T05:16:55.957Z,78.17
2022-12-20T05:19:28.318Z,78.30
2022-12-20T05:22:17.979Z,77.91
2022-12-20T05:25:29.941Z,77.78
2022-12-20T05:28:04.729Z,78.01
2022-12-20T05:30:39.808Z,77.99
2022-12-20T05:33:12.909Z,77.58
2022-12-20T05:35:47.284Z,77.54
2022-12-20T05:38:19.835Z,77.52
2022-12-20T05:40:52.347Z,77.05
2022-12-20T05:43:24.652Z,76.65
2022-12-20T05:45:56.789Z,76.54
2022-12-20T05:48:35.746Z,76.67
2022-12-20T05:51:10.216Z,76.54
2022-12-20T05:53:55.903Z,76.57
2022-12-20T05:56:37.698Z,76.65
2022-12-20T05:59:10.493Z,76.88
2022-12-20T06:01:44.492Z,76.81
2022-12-20T06:04:17.554Z,76.72
2022-12-20T06:06:52.477Z,76.92
2022-12-20T06:09:25.276Z,77.07
2022-12-20T06:12:05.148Z,77.38
2022-12-20T06:14:38.507Z,77.57
2022-12-20T06:17:12.144Z,77.40
2022-12-20T06:19:44.410Z,77.28
2022-12-20T06:22:19.086Z,77.02
2022-12-20T06:24:58.080Z,77.13
2022-12-20T06:27:33.150Z,76.86
2022-12-20T06:30:15.705Z,76.90
2022-12-20T06:33:20.206Z,77.26
2022-12-20T06:35:53.916Z,77.16
2022-12-20T06:38:28.240Z,77.35
2022-12-20T06:41:00.302Z,77.24
2022-12-20T06:43:32.617Z,77.05
2022-12-20T06:46:04.790Z,76.93
2022-12-20T06:48:37.023Z,76.63
2022-12-20T06:51:11.188Z,76.38
2022-12-20T06:53:43.498Z,76.07
2022-12-20T06:56:15.695Z,76.11
2022-12-20T06:58:48.190Z,76.27
2022-12-20T07:01:20.462Z,75.95
2022-12-20T07:03:52.904Z,76.00
2022-12-20T07:06:27.054Z,75.71
2022-12-20T07:08:59.398Z,76.22
2022-12-20T07:11:31.634Z,76.56
2022-12-20T07:14:03.744Z,76.33
2022-12-20T07:16:36.067Z,76.30
2022-12-20T07:19:11.601Z,76.52
2022-12-20T07:21:42.115Z,75.84
2022-12-20T07:24:14.425Z,75.38
2022-12-20T07:26:47.879Z,75.35
2022-12-20T07:29:20.080Z,75.44
2022-12-20T07:31:52.751Z,75.62
2022-12-20T07:34:25.849Z,75.36
2022-12-20T07:36:58.297Z,75.45
2022-12-20T07:39:31.057Z,75.79
2022-12-20T07:42:03.813Z,75.61
2022-12-20T07:44:47.815Z,75.38
2022-12-20T07:47:19.973Z,75.55
2022-12-20T07:49:52.233Z,75.64
2022-12-20T07:52:29.195Z,75.44
2022-12-20T07:55:06.403Z,75.24
2022-12-20T07:57:42.071Z,74.89
2022-12-20T08:00:16.358Z,74.57
2022-12-20T08:02:54.911Z,74.79
2022-12-20T08:05:27.527Z,74.80
2022-12-20T08:08:03.742Z,74.67
2022-12-20T08:10:37.518Z,74.86
2022-12-20T08:13:10.391Z,74.91
2022-12-20T08:15:42.632Z,74.95
2022-12-20T08:18:16.257Z,74.93
2022-12-20T08:20:48.607Z,74.79
2022-12-20T08:23:20.998Z,74.96
2022-12-20T08:25:53.662Z,75.18
2022-12-20T08:28:25.825Z,74.60
2022-12-20T08:31:03.423Z,74.84
2022-12-20T08:33:36.513Z,74.93
2022-12-20T08:36:11.590Z,75.34
2022-12-20T08:38:44.144Z,75.13
2022-12-20T08:41:18.137Z,75.59
2022-12-20T08:43:50.292Z,75.52
2022-12-20T08:46:22.520Z,75.33
2022-12-20T08:48:54.723Z,75.36
2022-12-20T08:51:27.086Z,75.52
2022-12-20T08:53:59.460Z,75.56
2022-12-20T08:56:31.628Z,75.22
2022-12-20T08:59:04.191Z,75.50
2022-12-20T09:01:36.433Z,75.01
2022-12-20T09:04:08.758Z,75.05
2022-12-20T09:06:41.574Z,75.20
2022-12-20T09:09:13.764Z,75.25
2022-12-20T09:11:46.322Z,76.15
2022-12-20T09:14:19.121Z,75.86
2022-12-20T09:16:51.290Z,75.46
2022-12-20T09:19:23.339Z,75.41
2022-12-20T09:21:56.775Z,74.91
2022-12-20T09:24:29.318Z,75.01
2022-12-20T09:27:01.729Z,74.91
2022-12-20T09:29:35.857Z,75.27
2022-12-20T09:32:09.102Z,75.12
2022-12-20T09:34:41.633Z,75.22
2022-12-20T09:37:14.088Z,75.04
2022-12-20T09:39:46.738Z,75.18
2022-12-20T09:42:21.131Z,75.24
2022-12-20T09:44:53.975Z,75.28
2022-12-20T09:47:28.470Z,74.90
2022-12-20T09:50:00.900Z,74.83
2022-12-20T09:52:52.750Z,74.73
2022-12-20T09:55:32.295Z,74.24
2022-12-20T09:58:28.745Z,74.36
2022-12-20T10:01:15.340Z,74.31
2022-12-20T10:03:48.556Z,73.93
2022-12-20T10:06:31.001Z,73.83
2022-12-20T10:09:06.762Z,73.50
2022-12-20T10:11:52.662Z,73.62
2022-12-20T10:14:45.890Z,73.80
2022-12-20T10:17:32.347Z,74.10
2022-12-20T10:20:20.142Z,73.94
2022-12-20T10:22:58.484Z,73.87
2022-12-20T10:25:33.849Z,74.08
2022-12-20T10:28:12.508Z,74.33
2022-12-20T10:30:45.846Z,75.06
2022-12-20T10:33:22.074Z,74.98
2022-12-20T10:35:55.174Z,74.84
2022-12-20T10:38:44.508Z,74.40
2022-12-20T10:41:22.411Z,74.36
2022-12-20T10:44:00.493Z,74.25
2022-12-20T10:46:42.471Z,73.95
2022-12-20T10:49:31.249Z,73.71
2022-12-20T10:52:13.316Z,73.80
2022-12-20T10:54:47.176Z,73.59
2022-12-20T10:57:23.373Z,73.87
2022-12-20T10:59:57.692Z,74.12
2022-12-20T11:02:40.020Z,73.74
2022-12-20T11:05:25.704Z,73.92
2022-12-20T11:11:11.612Z,74.02
2022-12-20T11:13:44.812Z,73.61
2022-12-20T11:16:41.640Z,73.29
2022-12-20T11:19:39.973Z,72.83
2022-12-20T11:22:27.016Z,72.93
2022-12-20T11:25:17.528Z,73.11
2022-12-20T11:28:00.530Z,73.11
2022-12-20T11:30:42.917Z,73.27
2022-12-20T11:33:32.123Z,73.29
2022-12-20T11:36:11.848Z,73.31
2022-12-20T11:38:49.169Z,73.32
2022-12-20T11:41:32.048Z,73.89
2022-12-20T11:44:29.467Z,73.93
2022-12-20T11:47:25.437Z,73.87
2022-12-20T11:50:11.349Z,73.80
2022-12-20T11:52:48.945Z,73.83
2022-12-20T11:55:27.784Z,74.03
2022-12-20T11:58:23.237Z,74.32
2022-12-20T12:00:57.458Z,74.51
2022-12-20T12:03:36.938Z,74.03
2022-12-20T12:06:13.679Z,74.44
2022-12-20T12:08:51.374Z,74.66
2022-12-20T12:14:31.119Z,75.03
2022-12-20T12:17:11.438Z,75.14
2022-12-20T12:19:48.561Z,75.11
2022-12-20T12:22:25.482Z,75.79
2022-12-20T12:25:03.098Z,76.63
2022-12-20T12:27:36.317Z,75.94
2022-12-20T12:30:13.946Z,76.28
2022-12-20T12:32:51.202Z,76.75
2022-12-20T12:35:47.665Z,76.97
2022-12-20T12:38:39.625Z,77.38
2022-12-20T12:41:33.327Z,77.10
2022-12-20T12:44:31.366Z,77.38
2022-12-20T12:47:07.905Z,76.84
2022-12-20T12:49:41.793Z,76.41
2022-12-20T12:52:35.727Z,76.51
2022-12-20T12:55:42.951Z,76.49
2022-12-20T12:58:35.998Z,76.07
2022-12-20T13:01:12.770Z,76.03
2022-12-20T13:04:24.042Z,76.44
2022-12-20T13:07:21.194Z,76.02
2022-12-20T13:09:54.017Z,76.19
2022-12-20T13:13:01.962Z,76.10
2022-12-20T13:15:53.834Z,75.72
2022-12-20T13:18:29.349Z,75.31
2022-12-20T13:21:39.898Z,75.10
2022-12-20T13:24:56.460Z,74.87
2022-12-20T13:27:32.971Z,74.70
2022-12-20T13:30:28.966Z,74.35
2022-12-20T13:33:24.095Z,73.85
2022-12-20T13:36:35.916Z,73.80
2022-12-20T13:39:38.055Z,73.55
2022-12-20T13:42:26.329Z,73.37
2022-12-20T13:45:03.238Z,73.13
2022-12-20T13:47:40.799Z,73.32
2022-12-20T13:50:43.051Z,73.22
2022-12-20T13:53:22.385Z,72.84
2022-12-20T13:55:55.583Z,72.59
2022-12-20T13:58:32.719Z,72.79
2022-12-20T14:01:12.858Z,72.54
2022-12-20T14:03:49.104Z,72.47
2022-12-20T14:06:26.768Z,72.33
2022-12-20T14:08:59.816Z,72.18
2022-12-20T14:11:32.134Z,72.25
2022-12-20T14:14:06.205Z,72.23
2022-12-20T14:16:38.922Z,72.21
2022-12-20T14:19:17.276Z,72.49
2022-12-20T14:21:50.004Z,72.39
2022-12-20T14:24:24.122Z,72.27
2022-12-20T14:26:57.526Z,72.09
2022-12-20T14:29:32.564Z,72.02
2022-12-20T14:32:03.238Z,72.03
2022-12-20T14:34:41.699Z,72.57
2022-12-20T14:37:35.817Z,72.43
2022-12-20T14:40:25.561Z,72.41
2022-12-20T14:42:58.188Z,72.38
2022-12-20T14:45:31.804Z,72.26
2022-12-20T14:48:08.850Z,72.45
2022-12-20T14:50:51.992Z,72.15
2022-12-20T14:53:28.744Z,72.39
2022-12-20T14:56:02.511Z,72.19
2022-12-20T14:58:36.290Z,72.01
2022-12-20T15:01:27.709Z,72.01
2022-12-20T15:04:01.348Z,71.93
2022-12-20T15:06:42.617Z,71.78
2022-12-20T15:09:15.790Z,71.93
2022-12-20T15:11:48.944Z,71.81
2022-12-20T15:14:29.337Z,71.83
2022-12-20T15:17:01.952Z,71.93
2022-12-20T15:19:38.863Z,71.76
2022-12-20T15:22:18.818Z,71.85
2022-12-20T15:24:51.443Z,71.73
2022-12-20T15:27:24.488Z,71.64
2022-12-20T15:29:59.083Z,71.93
2022-12-20T15:32:31.008Z,71.80
2022-12-20T15:35:04.208Z,71.89
2022-12-20T15:37:36.667Z,71.71
2022-12-20T15:40:14.585Z,71.73
2022-12-20T15:42:47.158Z,71.88
2022-12-20T15:45:19.801Z,71.82
2022-12-20T15:47:52.283Z,71.83
2022-12-20T15:50:24.819Z,71.83
2022-12-20T15:52:58.453Z,72.06
2022-12-20T15:55:37.751Z,72.01
2022-12-20T15:58:12.680Z,72.03
2022-12-20T16:00:45.851Z,71.58
2022-12-20T16:03:21.039Z,71.83
2022-12-20T16:05:56.384Z,71.88
2022-12-20T16:08:28.924Z,71.83
2022-12-20T16:11:01.902Z,71.93
2022-12-20T16:13:35.332Z,72.08
2022-12-20T16:16:08.353Z,71.95
2022-12-20T16:18:40.950Z,72.36
2022-12-20T16:21:18.819Z,71.95
2022-12-20T16:23:52.342Z,71.91
2022-12-20T16:26:26.353Z,72.04
2022-12-20T16:28:59.122Z,72.10
2022-12-20T16:31:34.354Z,72.06
2022-12-20T16:34:11.237Z,72.14
2022-12-20T16:36:44.084Z,72.02
2022-12-20T16:39:16.599Z,71.92
2022-12-20T16:41:48.964Z,71.65
2022-12-20T16:44:23.127Z,71.94
2022-12-20T16:46:55.626Z,71.92
2022-12-20T16:49:28.328Z,72.17
2022-12-20T16:52:00.882Z,72.42
2022-12-20T16:54:33.530Z,72.38
2022-12-20T16:57:06.145Z,72.24
2022-12-20T16:59:38.599Z,72.08
2022-12-20T17:02:27.352Z,71.94
2022-12-20T17:05:02.591Z,72.20
2022-12-20T17:07:41.151Z,72.15
2022-12-20T17:10:14.444Z,71.91
2022-12-20T17:12:47.698Z,71.86
2022-12-20T17:15:24.104Z,71.75
2022-12-20T17:17:58.119Z,71.64
2022-12-20T17:20:36.466Z,71.80
2022-12-20T17:26:06.575Z,71.54
2022-12-20T17:28:38.992Z,71.84
2022-12-20T17:31:23.281Z,71.86
2022-12-20T17:33:56.156Z,72.02
2022-12-20T17:36:34.448Z,71.70
2022-12-20T17:39:10.357Z,71.66
2022-12-20T17:41:44.091Z,71.76
2022-12-20T17:44:21.211Z,71.66
2022-12-20T17:46:54.977Z,71.52
2022-12-20T17:49:27.597Z,71.59
2022-12-20T17:52:00.147Z,71.78
2022-12-20T17:54:39.783Z,71.65
2022-12-20T17:57:17.512Z,71.93
2022-12-20T17:59:50.033Z,71.90
2022-12-20T18:02:25.214Z,71.43
2022-12-20T18:04:58.741Z,71.48
2022-12-20T18:07:32.973Z,71.24
2022-12-20T18:10:06.339Z,71.25
2022-12-20T18:12:40.104Z,71.16
2022-12-20T18:15:13.518Z,70.96
2022-12-20T18:17:46.646Z,71.23
2022-12-20T18:20:19.555Z,71.41
2022-12-20T18:22:52.173Z,71.16
2022-12-20T18:25:24.698Z,71.21
2022-12-20T18:27:57.322Z,71.13
2022-12-20T18:30:30.277Z,71.15
2022-12-20T18:33:02.785Z,71.12
2022-12-20T18:35:37.555Z,71.01
2022-12-20T18:38:10.514Z,70.78
2022-12-20T18:40:48.300Z,70.65
2022-12-20T18:43:22.178Z,70.80
2022-12-20T18:45:54.885Z,70.57
2022-12-20T18:48:28.272Z,70.34
2022-12-20T18:51:06.284Z,70.34
2022-12-20T18:53:40.123Z,70.08
2022-12-20T18:56:14.406Z,69.96
2022-12-20T18:58:47.433Z,69.77
2022-12-20T19:01:22.040Z,69.89
2022-12-20T19:03:57.607Z,69.85
2022-12-20T19:06:30.335Z,69.90
2022-12-20T19:09:04.583Z,69.80
2022-12-20T19:11:37.622Z,69.99
2022-12-20T19:14:12.513Z,69.84
2022-12-20T19:16:45.158Z,69.60
2022-12-20T19:19:18.184Z,69.65
2022-12-20T19:21:51.079Z,69.50
2022-12-20T19:24:23.682Z,69.20
2022-12-20T19:26:57.649Z,69.12
2022-12-20T19:29:32.288Z,69.32
2022-12-20T19:32:05.905Z,69.41
2022-12-20T19:34:39.950Z,69.29
2022-12-20T19:37:13.169Z,69.23
2022-12-20T19:39:45.888Z,68.93
2022-12-20T19:42:24.873Z,69.03
2022-12-20T19:44:58.659Z,68.92
2022-12-20T19:47:33.202Z,68.80
2022-12-20T19:50:06.641Z,68.79
2022-12-20T19:52:39.045Z,68.75
2022-12-20T19:55:11.982Z,68.67
2022-12-20T19:57:44.699Z,68.82
2022-12-20T20:00:19.086Z,68.65
2022-12-20T20:02:52.097Z,68.64
2022-12-20T20:05:24.850Z,68.69
2022-12-20T20:08:00.426Z,68.91
2022-12-20T20:10:34.167Z,68.75
2022-12-20T20:13:07.449Z,69.09
2022-12-20T20:15:41.219Z,69.37
2022-12-20T20:18:14.300Z,69.43
2022-12-20T20:20:47.529Z,69.30
2022-12-20T20:23:20.438Z,69.04
2022-12-20T20:25:54.476Z,69.30
2022-12-20T20:28:31.866Z,69.55
2022-12-20T20:31:07.095Z,69.98
2022-12-20T20:33:39.969Z,69.76
2022-12-20T20:36:16.106Z,69.77
2022-12-20T20:38:49.650Z,70.14
2022-12-20T20:41:22.712Z,70.56
2022-12-20T20:43:55.162Z,70.78
2022-12-20T20:46:28.410Z,70.54
2022-12-20T20:49:00.845Z,70.44
2022-12-20T20:51:33.335Z,70.55
2022-12-20T20:54:05.999Z,70.79
2022-12-20T20:56:38.475Z,70.89
2022-12-20T20:59:17.275Z,71.01
2022-12-20T21:01:50.592Z,71.42
2022-12-20T21:04:23.296Z,71.85
2022-12-20T21:06:55.719Z,71.65
2022-12-20T21:09:28.838Z,71.89
2022-12-20T21:12:01.768Z,71.69
2022-12-20T21:15:02.305Z,71.89
2022-12-20T21:17:27.131Z,71.98
2022-12-20T21:19:59.750Z,72.08
2022-12-20T21:22:32.474Z,72.28
2022-12-20T21:25:05.295Z,72.32
2022-12-20T21:27:38.684Z,72.09
2022-12-20T21:30:13.804Z,72.37
2022-12-20T21:32:47.563Z,72.35
2022-12-20T21:35:20.635Z,71.97
2022-12-20T21:37:53.592Z,72.14
2022-12-20T21:40:25.991Z,72.07
2022-12-20T21:42:58.578Z,71.65
2022-12-20T21:45:30.921Z,71.47
2022-12-20T21:48:03.799Z,71.47
2022-12-20T21:50:36.671Z,71.20
2022-12-20T21:53:12.814Z,71.09
2022-12-20T21:55:48.104Z,71.06
2022-12-20T21:58:21.169Z,70.89
2022-12-20T22:00:55.691Z,70.67
2022-12-20T22:03:27.427Z,70.36
2022-12-20T22:06:00.626Z,70.62
2022-12-20T22:08:34.470Z,70.53
2022-12-20T22:11:09.668Z,70.35
2022-12-20T22:13:43.361Z,70.13
2022-12-20T22:16:17.543Z,70.19
2022-12-20T22:18:53.706Z,70.28
2022-12-20T22:21:28.763Z,70.13
2022-12-20T22:24:02.836Z,70.08
2022-12-20T22:26:35.958Z,69.75
2022-12-20T22:29:09.024Z,70.07
2022-12-20T22:31:41.479Z,70.10
2022-12-20T22:34:14.124Z,70.14
2022-12-20T22:36:46.708Z,70.08
2022-12-20T22:39:19.646Z,69.92
2022-12-20T22:41:52.002Z,69.81
2022-12-20T22:44:24.673Z,69.87
2022-12-20T22:46:57.064Z,69.72
2022-12-20T22:49:29.773Z,69.54
2022-12-20T22:52:07.473Z,69.60
2022-12-20T22:54:41.245Z,69.43
2022-12-20T22:57:14.864Z,69.19
2022-12-20T22:59:47.556Z,69.28
2022-12-20T23:02:20.048Z,69.35
2022-12-20T23:04:53.830Z,69.00
2022-12-20T23:07:26.278Z,69.15
2022-12-20T23:09:58.611Z,69.23
2022-12-20T23:12:48.529Z,69.00
2022-12-20T23:15:38.740Z,69.12
2022-12-20T23:18:11.581Z,69.12
2022-12-20T23:21:01.797Z,69.08
2022-12-20T23:23:34.917Z,68.92
2022-12-20T23:26:15.305Z,68.87
2022-12-20T23:28:47.691Z,68.84
2022-12-20T23:31:20.202Z,68.74
2022-12-20T23:33:52.678Z,68.90
2022-12-20T23:36:25.308Z,69.22
2022-12-20T23:38:57.883Z,69.20
2022-12-20T23:41:30.511Z,69.03
2022-12-20T23:44:04.045Z,68.93
2022-12-20T23:46:38.440Z,68.87
2022-12-20T23:49:10.811Z,68.76
2022-12-20T23:51:43.893Z,68.82
2022-12-20T23:54:19.947Z,69.01
2022-12-20T23:56:52.635Z,68.87
2022-12-20T23:59:25.001Z,68.58
